createdAt,value
2023-05-20T00:00:41.678Z,1016.22
2023-05-20T00:01:41.666Z,1016.24
2023-05-20T00:02:41.768Z,1016.24
2023-05-20T00:03:41.745Z,1016.26
2023-05-20T00:04:41.660Z,1016.23
2023-05-20T00:05:41.794Z,1016.25
2023-05-20T00:06:41.618Z,1016.25
2023-05-20T00:07:41.604Z,1016.22
2023-05-20T00:08:41.600Z,1016.20
2023-05-20T00:09:41.605Z,1016.20
2023-05-20T00:10:41.594Z,1016.19
2023-05-20T00:11:41.593Z,1016.18
2023-05-20T00:12:41.552Z,1016.17
2023-05-20T00:13:41.541Z,1016.15
2023-05-20T00:14:41.535Z,1016.12
2023-05-20T00:15:41.524Z,1016.12
2023-05-20T00:16:41.555Z,1016.14
2023-05-20T00:17:41.529Z,1016.15
2023-05-20T00:18:41.545Z,1016.15
2023-05-20T00:19:41.478Z,1016.11
2023-05-20T00:20:41.475Z,1016.15
2023-05-20T00:21:41.462Z,1016.12
2023-05-20T00:22:41.451Z,1016.10
2023-05-20T00:23:41.436Z,1016.14
2023-05-20T00:24:41.427Z,1016.17
2023-05-20T00:25:41.419Z,1016.11
2023-05-20T00:26:41.409Z,1016.11
2023-05-20T00:27:41.412Z,1016.11
2023-05-20T00:28:41.399Z,1016.14
2023-05-20T00:29:41.376Z,1016.20
2023-05-20T00:30:41.365Z,1016.11
2023-05-20T00:31:41.379Z,1016.18
2023-05-20T00:32:41.396Z,1016.21
2023-05-20T00:33:41.332Z,1016.15
2023-05-20T00:34:41.326Z,1016.20
2023-05-20T00:35:41.310Z,1016.21
2023-05-20T00:36:41.305Z,1016.20
2023-05-20T00:37:41.287Z,1016.18
2023-05-20T00:38:41.289Z,1016.20
2023-05-20T00:39:41.280Z,1016.19
2023-05-20T00:40:41.263Z,1016.20
2023-05-20T00:41:41.249Z,1016.17
2023-05-20T00:42:41.238Z,1016.16
2023-05-20T00:43:41.239Z,1016.14
2023-05-20T00:44:41.246Z,1016.18
2023-05-20T00:45:41.214Z,1016.15
2023-05-20T00:46:41.201Z,1016.14
2023-05-20T00:47:41.243Z,1016.16
2023-05-20T00:48:41.212Z,1016.22
2023-05-20T00:49:41.163Z,1016.23
2023-05-20T00:50:41.153Z,1016.24
2023-05-20T00:51:41.140Z,1016.19
2023-05-20T00:52:41.132Z,1016.24
2023-05-20T00:53:41.119Z,1016.25
2023-05-20T00:54:41.113Z,1016.25
2023-05-20T00:55:41.097Z,1016.26
2023-05-20T00:56:41.102Z,1016.24
2023-05-20T00:57:41.081Z,1016.26
2023-05-20T00:58:41.072Z,1016.21
2023-05-20T00:59:42.881Z,1016.22
2023-05-20T01:00:41.050Z,1016.22
2023-05-20T01:01:41.052Z,1016.21
2023-05-20T01:02:41.090Z,1016.19
2023-05-20T01:03:41.164Z,1016.20
2023-05-20T01:04:41.008Z,1016.18
2023-05-20T01:05:42.435Z,1016.15
2023-05-20T01:06:40.993Z,1016.15
2023-05-20T01:07:40.975Z,1016.15
2023-05-20T01:08:40.976Z,1016.13
2023-05-20T01:09:40.954Z,1016.14
2023-05-20T01:10:40.941Z,1016.12
2023-05-20T01:11:40.930Z,1016.14
2023-05-20T01:12:40.921Z,1016.16
2023-05-20T01:13:40.910Z,1016.15
2023-05-20T01:14:40.911Z,1016.17
2023-05-20T01:16:31.720Z,1016.15
2023-05-20T01:17:31.683Z,1016.14
2023-05-20T01:18:31.648Z,1016.11
2023-05-20T01:19:31.633Z,1016.16
2023-05-20T01:20:31.626Z,1016.16
2023-05-20T01:21:31.607Z,1016.17
2023-05-20T01:22:31.633Z,1016.16
2023-05-20T01:23:31.591Z,1016.17
2023-05-20T01:24:31.585Z,1016.17
2023-05-20T01:25:31.606Z,1016.18
2023-05-20T01:26:31.559Z,1016.18
2023-05-20T01:27:31.550Z,1016.17
2023-05-20T01:28:31.538Z,1016.13
2023-05-20T01:29:31.531Z,1016.15
2023-05-20T01:30:31.523Z,1016.11
2023-05-20T01:31:31.549Z,1016.10
2023-05-20T01:32:31.562Z,1016.07
2023-05-20T01:33:31.483Z,1016.07
2023-05-20T01:34:31.475Z,1016.07
2023-05-20T01:35:31.469Z,1016.07
2023-05-20T01:36:31.456Z,1016.05
2023-05-20T01:37:31.445Z,1016.04
2023-05-20T01:38:31.430Z,1016.04
2023-05-20T01:39:31.418Z,1016.10
2023-05-20T01:40:31.422Z,1016.04
2023-05-20T01:41:31.399Z,1016.08
2023-05-20T01:42:31.391Z,1016.04
2023-05-20T01:43:31.379Z,1016.01
2023-05-20T01:44:31.377Z,1016.06
2023-05-20T01:45:31.422Z,1016.09
2023-05-20T01:46:31.379Z,1016.05
2023-05-20T01:47:31.399Z,1016.05
2023-05-20T01:48:31.358Z,1016.05
2023-05-20T01:49:31.333Z,1016.09
2023-05-20T01:50:31.307Z,1016.04
2023-05-20T01:51:31.296Z,1015.97
2023-05-20T01:52:31.287Z,1015.99
2023-05-20T01:53:31.275Z,1015.93
2023-05-20T01:54:31.263Z,1015.92
2023-05-20T01:55:31.305Z,1015.93
2023-05-20T01:56:31.246Z,1015.97
2023-05-20T01:57:31.234Z,1015.94
2023-05-20T01:58:31.218Z,1015.95
2023-05-20T01:59:31.206Z,1015.93
2023-05-20T02:00:31.227Z,1015.96
2023-05-20T02:01:31.213Z,1015.96
2023-05-20T02:02:31.256Z,1015.91
2023-05-20T02:03:31.170Z,1015.90
2023-05-20T02:04:31.180Z,1015.89
2023-05-20T02:05:31.170Z,1015.84
2023-05-20T02:06:31.134Z,1015.88
2023-05-20T02:07:31.134Z,1015.91
2023-05-20T02:08:31.116Z,1015.90
2023-05-20T02:09:31.106Z,1015.90
2023-05-20T02:10:31.091Z,1015.91
2023-05-20T02:11:31.089Z,1015.93
2023-05-20T02:12:31.082Z,1015.96
2023-05-20T02:13:31.058Z,1015.98
2023-05-20T02:14:31.060Z,1015.97
2023-05-20T02:15:31.075Z,1015.98
2023-05-20T02:16:31.080Z,1015.95
2023-05-20T02:17:31.069Z,1015.96
2023-05-20T02:18:31.010Z,1015.92
2023-05-20T02:19:31.105Z,1015.99
2023-05-20T02:20:31.016Z,1016.01
2023-05-20T02:21:30.978Z,1015.99
2023-05-20T02:22:30.967Z,1015.97
2023-05-20T02:23:30.958Z,1015.97
2023-05-20T02:24:30.942Z,1015.99
2023-05-20T02:25:30.950Z,1016.00
2023-05-20T02:26:30.925Z,1015.98
2023-05-20T02:27:30.914Z,1015.97
2023-05-20T02:28:30.905Z,1015.90
2023-05-20T02:29:30.903Z,1015.95
2023-05-20T02:30:30.885Z,1015.93
2023-05-20T02:31:30.873Z,1015.97
2023-05-20T02:32:30.861Z,1015.99
2023-05-20T02:33:30.877Z,1016.01
2023-05-20T02:34:30.934Z,1016.05
2023-05-20T02:35:30.845Z,1016.02
2023-05-20T02:36:30.844Z,1016.04
2023-05-20T02:37:30.805Z,1016.03
2023-05-20T02:38:30.806Z,1016.01
2023-05-20T02:39:30.793Z,1015.97
2023-05-20T02:40:30.778Z,1015.97
2023-05-20T02:41:30.775Z,1015.95
2023-05-20T02:42:30.763Z,1015.94
2023-05-20T02:43:30.751Z,1015.97
2023-05-20T02:44:30.736Z,1015.92
2023-05-20T02:45:30.724Z,1015.92
2023-05-20T02:46:30.742Z,1015.90
2023-05-20T02:47:30.772Z,1015.92
2023-05-20T02:48:30.693Z,1015.92
2023-05-20T02:49:30.686Z,1015.92
2023-05-20T02:50:30.667Z,1015.92
2023-05-20T02:51:30.658Z,1015.96
2023-05-20T02:52:30.674Z,1015.92
2023-05-20T02:53:30.637Z,1015.88
2023-05-20T02:54:30.627Z,1015.86
2023-05-20T02:55:30.617Z,1015.85
2023-05-20T02:56:30.615Z,1015.87
2023-05-20T02:57:30.594Z,1015.86
2023-05-20T02:58:30.584Z,1015.85
2023-05-20T02:59:30.574Z,1015.80
2023-05-20T03:00:30.571Z,1015.81
2023-05-20T03:01:30.649Z,1015.84
2023-05-20T03:02:30.549Z,1015.76
2023-05-20T03:03:30.529Z,1015.81
2023-05-20T03:04:30.539Z,1015.86
2023-05-20T03:05:30.508Z,1015.84
2023-05-20T03:06:30.501Z,1015.82
2023-05-20T03:07:30.486Z,1015.81
2023-05-20T03:08:30.505Z,1015.86
2023-05-20T03:09:30.471Z,1015.82
2023-05-20T03:10:30.454Z,1015.78
2023-05-20T03:11:30.445Z,1015.84
2023-05-20T03:12:30.435Z,1015.82
2023-05-20T03:13:30.426Z,1015.75
2023-05-20T03:14:30.414Z,1015.75
2023-05-20T03:15:30.404Z,1015.75
2023-05-20T03:16:30.442Z,1015.75
2023-05-20T03:17:30.411Z,1015.79
2023-05-20T03:18:30.373Z,1015.81
2023-05-20T03:19:30.409Z,1015.83
2023-05-20T03:20:30.347Z,1015.85
2023-05-20T03:21:30.349Z,1015.85
2023-05-20T03:22:30.325Z,1015.83
2023-05-20T03:23:30.314Z,1015.83
2023-05-20T03:24:30.327Z,1015.83
2023-05-20T03:25:30.305Z,1015.85
2023-05-20T03:26:30.282Z,1015.82
2023-05-20T03:27:30.283Z,1015.86
2023-05-20T03:28:30.262Z,1015.82
2023-05-20T03:29:30.253Z,1015.87
2023-05-20T03:30:30.240Z,1015.85
2023-05-20T03:31:30.245Z,1015.85
2023-05-20T03:32:30.279Z,1015.84
2023-05-20T03:33:30.213Z,1015.86
2023-05-20T03:34:30.212Z,1015.87
2023-05-20T03:35:30.194Z,1015.87
2023-05-20T03:36:30.229Z,1015.86
2023-05-20T03:37:30.169Z,1015.81
2023-05-20T03:38:30.156Z,1015.82
2023-05-20T03:39:30.147Z,1015.86
2023-05-20T03:40:30.184Z,1015.79
2023-05-20T03:41:30.135Z,1015.82
2023-05-20T03:42:30.112Z,1015.78
2023-05-20T03:43:30.111Z,1015.77
2023-05-20T03:44:30.100Z,1015.75
2023-05-20T03:45:30.081Z,1015.68
2023-05-20T03:46:30.097Z,1015.73
2023-05-20T03:47:30.080Z,1015.70
2023-05-20T03:48:30.055Z,1015.68
2023-05-20T03:49:30.034Z,1015.67
2023-05-20T03:50:30.026Z,1015.67
2023-05-20T03:51:30.040Z,1015.75
2023-05-20T03:52:30.009Z,1015.69
2023-05-20T03:53:30.000Z,1015.68
2023-05-20T03:54:29.983Z,1015.72
2023-05-20T03:55:29.977Z,1015.69
2023-05-20T03:56:29.997Z,1015.71
2023-05-20T03:57:29.954Z,1015.75
2023-05-20T03:58:29.951Z,1015.73
2023-05-20T03:59:29.961Z,1015.77
2023-05-20T04:00:29.920Z,1015.81
2023-05-20T04:01:29.915Z,1015.77
2023-05-20T04:02:30.113Z,1015.78
2023-05-20T04:03:29.940Z,1015.74
2023-05-20T04:04:29.878Z,1015.76
2023-05-20T04:05:29.872Z,1015.77
2023-05-20T04:06:29.860Z,1015.72
2023-05-20T04:07:29.869Z,1015.69
2023-05-20T04:08:29.835Z,1015.68
2023-05-20T04:09:29.827Z,1015.67
2023-05-20T04:10:29.820Z,1015.71
2023-05-20T04:11:29.810Z,1015.64
2023-05-20T04:12:29.817Z,1015.62
2023-05-20T04:13:29.789Z,1015.60
2023-05-20T04:14:30.172Z,1015.61
2023-05-20T04:15:29.778Z,1015.63
2023-05-20T04:16:29.807Z,1015.67
2023-05-20T04:17:29.782Z,1015.67
2023-05-20T04:18:29.731Z,1015.63
2023-05-20T04:19:29.747Z,1015.65
2023-05-20T04:20:29.716Z,1015.62
2023-05-20T04:21:29.706Z,1015.67
2023-05-20T04:22:29.692Z,1015.64
2023-05-20T04:23:29.679Z,1015.67
2023-05-20T04:24:29.667Z,1015.70
2023-05-20T04:25:29.658Z,1015.72
2023-05-20T04:26:29.652Z,1015.72
2023-05-20T04:27:29.636Z,1015.71
2023-05-20T04:28:29.647Z,1015.74
2023-05-20T04:29:29.619Z,1015.70
2023-05-20T04:30:29.601Z,1015.69
2023-05-20T04:31:29.630Z,1015.73
2023-05-20T04:32:29.588Z,1015.66
2023-05-20T04:33:29.580Z,1015.72
2023-05-20T04:34:29.564Z,1015.73
2023-05-20T04:35:29.546Z,1015.78
2023-05-20T04:36:29.547Z,1015.75
2023-05-20T04:37:29.529Z,1015.75
2023-05-20T04:38:29.930Z,1015.77
2023-05-20T04:39:29.503Z,1015.71
2023-05-20T04:40:29.501Z,1015.76
2023-05-20T04:41:29.491Z,1015.79
2023-05-20T04:42:29.507Z,1015.77
2023-05-20T04:43:29.503Z,1015.82
2023-05-20T04:44:29.501Z,1015.82
2023-05-20T04:45:29.444Z,1015.78
2023-05-20T04:46:29.453Z,1015.81
2023-05-20T04:47:29.462Z,1015.80
2023-05-20T04:48:29.422Z,1015.83
2023-05-20T04:49:29.401Z,1015.81
2023-05-20T04:50:29.394Z,1015.79
2023-05-20T04:51:29.395Z,1015.81
2023-05-20T04:52:29.365Z,1015.81
2023-05-20T04:53:29.363Z,1015.77
2023-05-20T04:54:29.347Z,1015.78
2023-05-20T04:55:29.338Z,1015.79
2023-05-20T04:56:29.325Z,1015.77
2023-05-20T04:57:29.317Z,1015.78
2023-05-20T04:58:29.311Z,1015.77
2023-05-20T04:59:29.309Z,1015.77
2023-05-20T05:00:29.322Z,1015.76
2023-05-20T05:01:29.355Z,1015.67
2023-05-20T05:02:29.277Z,1015.66
2023-05-20T05:03:29.275Z,1015.72
2023-05-20T05:04:29.258Z,1015.73
2023-05-20T05:05:29.236Z,1015.76
2023-05-20T05:06:29.222Z,1015.70
2023-05-20T05:07:29.218Z,1015.71
2023-05-20T05:08:29.204Z,1015.63
2023-05-20T05:09:29.191Z,1015.64
2023-05-20T05:10:29.179Z,1015.61
2023-05-20T05:11:29.172Z,1015.64
2023-05-20T05:12:29.163Z,1015.64
2023-05-20T05:13:29.150Z,1015.62
2023-05-20T05:14:29.142Z,1015.62
2023-05-20T05:15:29.135Z,1015.61
2023-05-20T05:16:29.244Z,1015.59
2023-05-20T05:17:29.335Z,1015.61
2023-05-20T05:18:29.096Z,1015.56
2023-05-20T05:19:29.118Z,1015.61
2023-05-20T05:20:29.076Z,1015.60
2023-05-20T05:21:29.070Z,1015.57
2023-05-20T05:22:29.054Z,1015.63
2023-05-20T05:23:29.063Z,1015.57
2023-05-20T05:24:29.033Z,1015.59
2023-05-20T05:25:29.022Z,1015.63
2023-05-20T05:26:29.015Z,1015.59
2023-05-20T05:27:29.013Z,1015.60
2023-05-20T05:28:28.996Z,1015.57
2023-05-20T05:29:28.981Z,1015.56
2023-05-20T05:30:28.974Z,1015.60
2023-05-20T05:31:28.963Z,1015.66
2023-05-20T05:32:29.038Z,1015.57
2023-05-20T05:33:28.955Z,1015.54
2023-05-20T05:34:28.927Z,1015.56
2023-05-20T05:35:28.917Z,1015.62
2023-05-20T05:36:28.905Z,1015.61
2023-05-20T05:37:28.897Z,1015.60
2023-05-20T05:38:28.879Z,1015.56
2023-05-20T05:39:28.886Z,1015.60
2023-05-20T05:40:28.863Z,1015.54
2023-05-20T05:41:28.852Z,1015.64
2023-05-20T05:42:28.855Z,1015.62
2023-05-20T05:43:28.838Z,1015.58
2023-05-20T05:44:28.846Z,1015.63
2023-05-20T05:45:28.815Z,1015.62
2023-05-20T05:46:28.951Z,1015.60
2023-05-20T05:47:28.813Z,1015.59
2023-05-20T05:48:28.800Z,1015.59
2023-05-20T05:49:28.768Z,1015.55
2023-05-20T05:50:28.753Z,1015.52
2023-05-20T05:51:28.744Z,1015.53
2023-05-20T05:52:28.733Z,1015.51
2023-05-20T05:53:28.725Z,1015.50
2023-05-20T05:54:28.722Z,1015.52
2023-05-20T05:55:28.705Z,1015.49
2023-05-20T05:56:28.689Z,1015.47
2023-05-20T05:57:28.683Z,1015.43
2023-05-20T05:58:28.668Z,1015.48
2023-05-20T05:59:28.657Z,1015.46
2023-05-20T06:00:28.654Z,1015.54
2023-05-20T06:01:28.693Z,1015.48
2023-05-20T06:02:28.736Z,1015.52
2023-05-20T06:03:28.667Z,1015.51
2023-05-20T06:04:28.681Z,1015.54
2023-05-20T06:05:31.635Z,1015.55
2023-05-20T06:06:28.586Z,1015.60
2023-05-20T06:07:28.575Z,1015.62
2023-05-20T06:08:28.562Z,1015.63
2023-05-20T06:09:28.553Z,1015.60
2023-05-20T06:10:28.575Z,1015.58
2023-05-20T06:11:28.533Z,1015.61
2023-05-20T06:12:28.531Z,1015.53
2023-05-20T06:13:28.509Z,1015.57
2023-05-20T06:14:28.496Z,1015.50
2023-05-20T06:15:28.488Z,1015.52
2023-05-20T06:16:28.504Z,1015.49
2023-05-20T06:17:28.500Z,1015.45
2023-05-20T06:18:28.462Z,1015.45
2023-05-20T06:19:28.495Z,1015.42
2023-05-20T06:20:28.503Z,1015.41
2023-05-20T06:21:28.426Z,1015.43
2023-05-20T06:22:28.413Z,1015.41
2023-05-20T06:23:28.409Z,1015.41
2023-05-20T06:24:28.394Z,1015.42
2023-05-20T06:25:28.384Z,1015.42
2023-05-20T06:26:28.372Z,1015.45
2023-05-20T06:27:28.368Z,1015.38
2023-05-20T06:28:28.357Z,1015.49
2023-05-20T06:29:28.345Z,1015.47
2023-05-20T06:30:28.332Z,1015.44
2023-05-20T06:31:28.416Z,1015.47
2023-05-20T06:32:28.324Z,1015.35
2023-05-20T06:33:28.305Z,1015.41
2023-05-20T06:34:28.295Z,1015.44
2023-05-20T06:35:28.294Z,1015.35
2023-05-20T06:36:28.313Z,1015.39
2023-05-20T06:37:28.309Z,1015.41
2023-05-20T06:38:28.252Z,1015.39
2023-05-20T06:39:28.245Z,1015.35
2023-05-20T06:40:28.232Z,1015.38
2023-05-20T06:41:28.226Z,1015.39
2023-05-20T06:42:28.227Z,1015.36
2023-05-20T06:43:28.201Z,1015.37
2023-05-20T06:44:28.195Z,1015.38
2023-05-20T06:45:28.196Z,1015.34
2023-05-20T06:46:28.237Z,1015.32
2023-05-20T06:47:28.193Z,1015.29
2023-05-20T06:48:28.152Z,1015.33
2023-05-20T06:49:28.142Z,1015.30
2023-05-20T06:50:28.139Z,1015.30
2023-05-20T06:51:28.136Z,1015.33
2023-05-20T06:52:28.136Z,1015.33
2023-05-20T06:53:28.104Z,1015.22
2023-05-20T06:54:28.087Z,1015.25
2023-05-20T06:55:28.082Z,1015.30
2023-05-20T06:56:28.070Z,1015.24
2023-05-20T06:57:28.069Z,1015.32
2023-05-20T06:58:28.056Z,1015.25
2023-05-20T06:59:28.041Z,1015.25
2023-05-20T07:00:28.032Z,1015.25
2023-05-20T07:01:28.050Z,1015.26
2023-05-20T07:02:28.029Z,1015.27
2023-05-20T07:03:28.032Z,1015.31
2023-05-20T07:04:27.983Z,1015.29
2023-05-20T07:05:27.984Z,1015.34
2023-05-20T07:06:27.973Z,1015.25
2023-05-20T07:07:27.962Z,1015.31
2023-05-20T07:08:27.967Z,1015.31
2023-05-20T07:09:27.945Z,1015.29
2023-05-20T07:10:27.928Z,1015.25
2023-05-20T07:11:27.940Z,1015.36
2023-05-20T07:12:27.906Z,1015.31
2023-05-20T07:13:27.940Z,1015.40
2023-05-20T07:14:27.883Z,1015.31
2023-05-20T07:15:27.884Z,1015.33
2023-05-20T07:16:28.006Z,1015.34
2023-05-20T07:17:27.885Z,1015.27
2023-05-20T07:18:27.855Z,1015.24
2023-05-20T07:19:27.881Z,1015.32
2023-05-20T07:20:27.821Z,1015.28
2023-05-20T07:21:27.821Z,1015.25
2023-05-20T07:22:27.802Z,1015.33
2023-05-20T07:23:27.794Z,1015.32
2023-05-20T07:24:27.800Z,1015.29
2023-05-20T07:25:27.771Z,1015.26
2023-05-20T07:26:27.783Z,1015.27
2023-05-20T07:27:27.747Z,1015.35
2023-05-20T07:28:27.739Z,1015.35
2023-05-20T07:29:27.731Z,1015.26
2023-05-20T07:30:27.721Z,1015.27
2023-05-20T07:31:27.732Z,1015.30
2023-05-20T07:32:27.709Z,1015.18
2023-05-20T07:33:27.688Z,1015.22
2023-05-20T07:34:27.687Z,1015.23
2023-05-20T07:35:27.666Z,1015.23
2023-05-20T07:36:27.697Z,1015.23
2023-05-20T07:37:27.646Z,1015.15
2023-05-20T07:38:27.633Z,1015.26
2023-05-20T07:39:27.625Z,1015.16
2023-05-20T07:40:27.634Z,1015.13
2023-05-20T07:41:27.601Z,1015.07
2023-05-20T07:42:27.591Z,1015.11
2023-05-20T07:43:27.588Z,1015.13
2023-05-20T07:44:27.777Z,1015.13
2023-05-20T07:45:27.560Z,1015.11
2023-05-20T07:46:27.569Z,1015.09
2023-05-20T07:47:27.575Z,1015.14
2023-05-20T07:48:27.535Z,1015.21
2023-05-20T07:49:27.542Z,1015.06
2023-05-20T07:50:27.508Z,1015.14
2023-05-20T07:51:27.491Z,1015.15
2023-05-20T07:52:27.486Z,1015.18
2023-05-20T07:53:27.478Z,1015.18
2023-05-20T07:54:27.467Z,1015.16
2023-05-20T07:55:27.465Z,1015.21
2023-05-20T07:56:27.468Z,1015.16
2023-05-20T07:57:27.430Z,1015.09
2023-05-20T07:58:27.426Z,1015.10
2023-05-20T07:59:27.416Z,1015.24
2023-05-20T08:00:27.414Z,1015.24
2023-05-20T08:01:27.419Z,1015.18
2023-05-20T08:02:27.460Z,1015.14
2023-05-20T08:03:27.540Z,1015.18
2023-05-20T08:04:27.838Z,1015.22
2023-05-20T08:05:27.370Z,1015.20
2023-05-20T08:06:29.652Z,1015.18
2023-05-20T08:07:27.329Z,1015.19
2023-05-20T08:08:27.318Z,1015.22
2023-05-20T08:09:27.307Z,1015.24
2023-05-20T08:10:27.298Z,1015.19
2023-05-20T08:11:27.288Z,1015.28
2023-05-20T08:12:27.301Z,1015.21
2023-05-20T08:13:27.269Z,1015.26
2023-05-20T08:14:27.253Z,1015.23
2023-05-20T08:15:27.242Z,1015.29
2023-05-20T08:16:27.281Z,1015.29
2023-05-20T08:17:27.266Z,1015.25
2023-05-20T08:18:27.212Z,1015.24
2023-05-20T08:19:27.238Z,1015.23
2023-05-20T08:20:27.191Z,1015.28
2023-05-20T08:21:27.178Z,1015.33
2023-05-20T08:22:27.175Z,1015.33
2023-05-20T08:23:27.161Z,1015.27
2023-05-20T08:24:27.150Z,1015.25
2023-05-20T08:25:27.138Z,1015.25
2023-05-20T08:26:27.127Z,1015.20
2023-05-20T08:27:27.115Z,1015.19
2023-05-20T08:28:27.134Z,1015.17
2023-05-20T08:29:27.100Z,1015.11
2023-05-20T08:30:27.083Z,1015.13
2023-05-20T08:31:27.146Z,1015.08
2023-05-20T08:32:27.095Z,1015.05
2023-05-20T08:33:27.057Z,1015.11
2023-05-20T08:34:27.049Z,1015.09
2023-05-20T08:35:27.036Z,1015.11
2023-05-20T08:36:27.021Z,1015.12
2023-05-20T08:37:27.016Z,1015.08
2023-05-20T08:38:27.000Z,1015.02
2023-05-20T08:39:26.992Z,1015.03
2023-05-20T08:40:26.976Z,1015.09
2023-05-20T08:41:26.972Z,1015.13
2023-05-20T08:42:26.980Z,1015.07
2023-05-20T08:43:26.948Z,1015.06
2023-05-20T08:44:26.957Z,1015.06
2023-05-20T08:45:26.926Z,1015.02
2023-05-20T08:46:26.949Z,1015.01
2023-05-20T08:47:26.927Z,1015.10
2023-05-20T08:48:26.897Z,1015.09
2023-05-20T08:49:26.886Z,1015.04
2023-05-20T08:50:26.872Z,1015.06
2023-05-20T08:51:26.870Z,1015.07
2023-05-20T08:52:26.854Z,1015.04
2023-05-20T08:53:26.838Z,1015.03
2023-05-20T08:54:26.832Z,1015.00
2023-05-20T08:55:26.855Z,1014.97
2023-05-20T08:56:28.755Z,1014.93
2023-05-20T08:57:26.802Z,1014.98
2023-05-20T08:58:26.812Z,1014.96
2023-05-20T08:59:26.793Z,1015.02
2023-05-20T09:00:26.907Z,1015.05
2023-05-20T09:01:26.788Z,1015.04
2023-05-20T09:02:26.780Z,1015.06
2023-05-20T09:03:26.749Z,1015.05
2023-05-20T09:04:26.738Z,1015.04
2023-05-20T09:05:26.712Z,1015.08
2023-05-20T09:06:26.706Z,1015.04
2023-05-20T09:07:26.699Z,1015.02
2023-05-20T09:08:26.702Z,1015.04
2023-05-20T09:09:26.679Z,1015.07
2023-05-20T09:10:26.673Z,1015.07
2023-05-20T09:11:26.655Z,1015.09
2023-05-20T09:12:26.644Z,1015.09
2023-05-20T09:13:26.683Z,1015.02
2023-05-20T09:14:26.621Z,1015.11
2023-05-20T09:15:26.621Z,1015.11
2023-05-20T09:16:26.656Z,1015.00
2023-05-20T09:17:26.639Z,1015.04
2023-05-20T09:18:26.585Z,1015.08
2023-05-20T09:19:26.627Z,1015.02
2023-05-20T09:20:26.561Z,1015.10
2023-05-20T09:21:26.546Z,1015.08
2023-05-20T09:22:26.538Z,1015.05
2023-05-20T09:23:26.528Z,1015.05
2023-05-20T09:24:26.741Z,1015.03
2023-05-20T09:25:26.503Z,1014.99
2023-05-20T09:26:26.491Z,1015.02
2023-05-20T09:27:26.479Z,1015.05
2023-05-20T09:28:26.472Z,1015.03
2023-05-20T09:29:26.462Z,1015.10
2023-05-20T09:30:26.451Z,1015.06
2023-05-20T09:31:26.466Z,1015.05
2023-05-20T09:32:26.578Z,1015.12
2023-05-20T09:33:26.415Z,1015.15
2023-05-20T09:34:26.406Z,1015.12
2023-05-20T09:35:26.427Z,1015.12
2023-05-20T09:36:26.398Z,1015.15
2023-05-20T09:37:26.427Z,1015.13
2023-05-20T09:38:26.390Z,1015.09
2023-05-20T09:39:26.401Z,1015.04
2023-05-20T09:40:26.371Z,1015.04
2023-05-20T09:41:26.357Z,1015.05
2023-05-20T09:42:26.340Z,1015.11
2023-05-20T09:43:26.311Z,1015.17
2023-05-20T09:44:26.305Z,1015.10
2023-05-20T09:45:26.286Z,1015.10
2023-05-20T09:46:26.325Z,1015.06
2023-05-20T09:47:26.272Z,1015.10
2023-05-20T09:48:26.283Z,1015.08
2023-05-20T09:49:26.253Z,1015.10
2023-05-20T09:50:26.235Z,1015.09
2023-05-20T09:51:26.229Z,1015.02
2023-05-20T09:52:26.221Z,1015.10
2023-05-20T09:53:26.197Z,1015.06
2023-05-20T09:54:26.266Z,1015.04
2023-05-20T09:55:26.199Z,1015.04
2023-05-20T09:56:26.172Z,1015.04
2023-05-20T09:57:26.159Z,1015.05
2023-05-20T09:58:26.152Z,1015.05
2023-05-20T09:59:26.137Z,1015.06
2023-05-20T10:00:26.132Z,1015.15
2023-05-20T10:01:26.123Z,1015.05
2023-05-20T10:02:26.178Z,1015.00
2023-05-20T10:03:26.183Z,1015.03
2023-05-20T10:04:26.109Z,1015.04
2023-05-20T10:05:26.086Z,1014.93
2023-05-20T10:06:26.059Z,1014.98
2023-05-20T10:07:40.730Z,1014.97
2023-05-20T10:08:27.070Z,1014.92
2023-05-20T10:09:26.031Z,1014.90
2023-05-20T10:10:26.019Z,1014.89
2023-05-20T10:11:26.007Z,1014.93
2023-05-20T10:12:26.001Z,1014.94
2023-05-20T10:13:25.987Z,1014.88
2023-05-20T10:14:25.978Z,1014.88
2023-05-20T10:15:25.972Z,1014.90
2023-05-20T10:16:25.985Z,1014.88
2023-05-20T10:17:25.979Z,1014.88
2023-05-20T10:18:25.949Z,1014.94
2023-05-20T10:19:26.110Z,1014.91
2023-05-20T10:20:25.938Z,1014.90
2023-05-20T10:21:25.907Z,1014.86
2023-05-20T10:22:25.898Z,1014.89
2023-05-20T10:23:25.885Z,1014.85
2023-05-20T10:24:25.876Z,1014.82
2023-05-20T10:25:25.858Z,1014.81
2023-05-20T10:26:25.858Z,1014.83
2023-05-20T10:27:25.841Z,1014.72
2023-05-20T10:28:25.836Z,1014.72
2023-05-20T10:29:25.833Z,1014.73
2023-05-20T10:30:25.806Z,1014.77
2023-05-20T10:31:25.839Z,1014.68
2023-05-20T10:32:25.855Z,1014.69
2023-05-20T10:33:25.840Z,1014.66
2023-05-20T10:34:25.771Z,1014.61
2023-05-20T10:35:25.757Z,1014.57
2023-05-20T10:36:25.775Z,1014.60
2023-05-20T10:37:25.735Z,1014.59
2023-05-20T10:38:25.731Z,1014.60
2023-05-20T10:39:25.712Z,1014.61
2023-05-20T10:40:25.706Z,1014.58
2023-05-20T10:41:25.692Z,1014.58
2023-05-20T10:42:25.681Z,1014.51
2023-05-20T10:43:25.680Z,1014.48
2023-05-20T10:44:25.666Z,1014.49
2023-05-20T10:45:25.648Z,1014.51
2023-05-20T10:46:34.981Z,1014.51
2023-05-20T10:47:26.869Z,1014.48
2023-05-20T10:48:25.714Z,1014.48
2023-05-20T10:49:27.927Z,1014.52
2023-05-20T10:50:25.600Z,1014.52
2023-05-20T10:51:25.585Z,1014.41
2023-05-20T10:52:25.599Z,1014.39
2023-05-20T10:53:33.529Z,1014.41
2023-05-20T10:54:26.585Z,1014.43
2023-05-20T10:55:25.545Z,1014.37
2023-05-20T10:56:25.532Z,1014.33
2023-05-20T10:57:25.525Z,1014.32
2023-05-20T10:58:25.511Z,1014.40
2023-05-20T10:59:25.504Z,1014.40
2023-05-20T11:00:25.491Z,1014.37
2023-05-20T11:01:25.585Z,1014.33
2023-05-20T11:02:25.481Z,1014.30
2023-05-20T11:03:25.629Z,1014.29
2023-05-20T11:04:25.446Z,1014.27
2023-05-20T11:05:25.443Z,1014.28
2023-05-20T11:06:25.426Z,1014.32
2023-05-20T11:07:25.423Z,1014.24
2023-05-20T11:08:29.075Z,1014.26
2023-05-20T11:09:25.403Z,1014.27
2023-05-20T11:10:25.385Z,1014.32
2023-05-20T11:11:25.376Z,1014.25
2023-05-20T11:12:25.370Z,1014.20
2023-05-20T11:13:25.891Z,1014.26
2023-05-20T11:14:25.341Z,1014.20
2023-05-20T11:15:25.336Z,1014.23
2023-05-20T11:16:25.357Z,1014.17
2023-05-20T11:17:25.337Z,1014.18
2023-05-20T11:18:25.314Z,1014.21
2023-05-20T11:19:25.372Z,1014.17
2023-05-20T11:20:25.280Z,1014.15
2023-05-20T11:21:25.276Z,1014.16
2023-05-20T11:22:25.271Z,1014.12
2023-05-20T11:23:25.247Z,1014.16
2023-05-20T11:24:25.262Z,1014.15
2023-05-20T11:25:25.227Z,1014.15
2023-05-20T11:26:25.226Z,1014.21
2023-05-20T11:27:25.202Z,1014.19
2023-05-20T11:28:25.194Z,1014.14
2023-05-20T11:29:25.185Z,1014.16
2023-05-20T11:30:25.178Z,1014.14
2023-05-20T11:31:25.171Z,1014.14
2023-05-20T11:32:25.203Z,1014.14
2023-05-20T11:33:25.148Z,1014.16
2023-05-20T11:34:26.840Z,1014.10
2023-05-20T11:35:25.123Z,1014.13
2023-05-20T11:36:28.226Z,1014.09
2023-05-20T11:37:25.100Z,1014.15
2023-05-20T11:38:25.100Z,1014.06
2023-05-20T11:39:25.090Z,1014.12
2023-05-20T11:40:27.071Z,1014.11
2023-05-20T11:41:25.058Z,1014.08
2023-05-20T11:42:25.048Z,1014.10
2023-05-20T11:43:25.037Z,1014.06
2023-05-20T11:44:25.049Z,1014.07
2023-05-20T11:45:25.021Z,1014.09
2023-05-20T11:46:25.058Z,1014.02
2023-05-20T11:47:24.997Z,1014.03
2023-05-20T11:48:24.987Z,1013.95
2023-05-20T11:49:24.979Z,1013.93
2023-05-20T11:50:24.964Z,1013.88
2023-05-20T11:51:24.959Z,1013.88
2023-05-20T11:52:24.945Z,1013.91
2023-05-20T11:53:24.931Z,1013.84
2023-05-20T11:54:24.923Z,1013.88
2023-05-20T11:55:24.924Z,1013.80
2023-05-20T11:56:24.928Z,1013.76
2023-05-20T11:57:24.898Z,1013.81
2023-05-20T11:58:24.899Z,1013.79
2023-05-20T11:59:24.913Z,1013.72
2023-05-20T12:00:25.480Z,1013.79
2023-05-20T12:01:24.979Z,1013.65
2023-05-20T12:02:24.894Z,1013.70
2023-05-20T12:03:24.987Z,1013.60
2023-05-20T12:04:24.924Z,1013.62
2023-05-20T12:05:24.813Z,1013.61
2023-05-20T12:06:24.795Z,1013.60